sensor_id;sensor_type;location;lat;lon;timestamp;pressure;altitude;pressure_sealevel;temperature;humidity
16806;BME280;8520;50.102;20.010;2023-02-22T00:00:44;98197.69;;;5.28;83.79
16806;BME280;8520;50.102;20.010;2023-02-22T00:03:16;98200.31;;;5.32;83.96
16806;BME280;8520;50.102;20.010;2023-02-22T00:05:52;98207.94;;;5.84;82.85
16806;BME280;8520;50.102;20.010;2023-02-22T00:08:23;98203.97;;;5.63;82.68
16806;BME280;8520;50.102;20.010;2023-02-22T00:10:56;98198.72;;;5.69;82.88
16806;BME280;8520;50.102;20.010;2023-02-22T00:13:24;98201.22;;;5.63;82.83
16806;BME280;8520;50.102;20.010;2023-02-22T00:15:56;98202.47;;;5.84;82.22
16806;BME280;8520;50.102;20.010;2023-02-22T00:18:28;98198.59;;;6.07;82.10
16806;BME280;8520;50.102;20.010;2023-02-22T00:20:58;98207.06;;;5.53;83.29
16806;BME280;8520;50.102;20.010;2023-02-22T00:23:28;98200.94;;;5.83;83.08
16806;BME280;8520;50.102;20.010;2023-02-22T00:25:58;98207.28;;;5.46;83.75
16806;BME280;8520;50.102;20.010;2023-02-22T00:28:26;98206.88;;;5.34;84.58
16806;BME280;8520;50.102;20.010;2023-02-22T00:30:58;98203.78;;;5.45;83.99
16806;BME280;8520;50.102;20.010;2023-02-22T00:33:26;98209.69;;;5.91;82.25
16806;BME280;8520;50.102;20.010;2023-02-22T00:35:54;98197.00;;;6.19;81.15
16806;BME280;8520;50.102;20.010;2023-02-22T00:38:23;98210.41;;;5.69;82.89
16806;BME280;8520;50.102;20.010;2023-02-22T00:40:52;98214.66;;;5.70;82.89
16806;BME280;8520;50.102;20.010;2023-02-22T00:43:23;98206.06;;;5.47;83.28
16806;BME280;8520;50.102;20.010;2023-02-22T00:45:51;98214.88;;;5.76;82.19
16806;BME280;8520;50.102;20.010;2023-02-22T00:48:21;98208.84;;;5.81;81.40
16806;BME280;8520;50.102;20.010;2023-02-22T00:50:52;98216.91;;;5.50;82.95
16806;BME280;8520;50.102;20.010;2023-02-22T00:53:24;98211.88;;;5.49;82.87
16806;BME280;8520;50.102;20.010;2023-02-22T00:55:53;98212.44;;;5.43;83.25
16806;BME280;8520;50.102;20.010;2023-02-22T00:58:21;98210.34;;;5.82;82.05
16806;BME280;8520;50.102;20.010;2023-02-22T01:00:50;98215.56;;;5.55;82.19
16806;BME280;8520;50.102;20.010;2023-02-22T01:03:20;98219.97;;;5.52;82.26
16806;BME280;8520;50.102;20.010;2023-02-22T01:05:48;98223.00;;;5.67;82.02
16806;BME280;8520;50.102;20.010;2023-02-22T01:08:17;98225.75;;;5.54;81.91
16806;BME280;8520;50.102;20.010;2023-02-22T01:10:45;98222.41;;;5.72;81.82
16806;BME280;8520;50.102;20.010;2023-02-22T01:13:13;98222.81;;;5.83;81.72
16806;BME280;8520;50.102;20.010;2023-02-22T01:15:42;98221.97;;;5.86;81.78
16806;BME280;8520;50.102;20.010;2023-02-22T01:18:11;98230.06;;;5.77;82.37
16806;BME280;8520;50.102;20.010;2023-02-22T01:20:44;98227.22;;;5.81;82.74
16806;BME280;8520;50.102;20.010;2023-02-22T01:23:14;98220.13;;;5.70;82.85
16806;BME280;8520;50.102;20.010;2023-02-22T01:25:43;98223.44;;;6.00;82.07
16806;BME280;8520;50.102;20.010;2023-02-22T01:28:13;98215.59;;;6.24;81.03
16806;BME280;8520;50.102;20.010;2023-02-22T01:30:41;98225.28;;;6.03;81.69
16806;BME280;8520;50.102;20.010;2023-02-22T01:33:09;98218.63;;;6.04;82.10
16806;BME280;8520;50.102;20.010;2023-02-22T01:35:39;98215.50;;;5.93;81.89
16806;BME280;8520;50.102;20.010;2023-02-22T01:38:09;98220.94;;;6.06;81.87
16806;BME280;8520;50.102;20.010;2023-02-22T01:40:39;98222.22;;;5.66;83.15
16806;BME280;8520;50.102;20.010;2023-02-22T01:43:16;98219.47;;;5.79;82.71
16806;BME280;8520;50.102;20.010;2023-02-22T01:46:03;98221.47;;;6.01;82.04
16806;BME280;8520;50.102;20.010;2023-02-22T01:48:38;98217.94;;;6.35;81.13
16806;BME280;8520;50.102;20.010;2023-02-22T01:51:10;98222.28;;;6.23;80.93
16806;BME280;8520;50.102;20.010;2023-02-22T01:53:49;98224.25;;;5.75;82.14
16806;BME280;8520;50.102;20.010;2023-02-22T01:56:20;98221.63;;;6.41;80.89
16806;BME280;8520;50.102;20.010;2023-02-22T01:58:51;98217.00;;;6.50;80.05
16806;BME280;8520;50.102;20.010;2023-02-22T02:01:22;98209.28;;;6.36;80.58
16806;BME280;8520;50.102;20.010;2023-02-22T02:03:54;98214.50;;;6.43;79.89
16806;BME280;8520;50.102;20.010;2023-02-22T02:06:25;98219.53;;;6.45;80.55
16806;BME280;8520;50.102;20.010;2023-02-22T02:09:02;98214.91;;;6.64;79.94
16806;BME280;8520;50.102;20.010;2023-02-22T02:11:32;98217.09;;;6.03;81.91
16806;BME280;8520;50.102;20.010;2023-02-22T02:14:00;98217.63;;;5.76;83.50
16806;BME280;8520;50.102;20.010;2023-02-22T02:16:35;98217.81;;;5.82;83.24
16806;BME280;8520;50.102;20.010;2023-02-22T02:19:11;98225.50;;;6.31;82.05
16806;BME280;8520;50.102;20.010;2023-02-22T02:22:18;98212.19;;;6.20;82.08
16806;BME280;8520;50.102;20.010;2023-02-22T02:31:24;98216.47;;;5.52;84.78
16806;BME280;8520;50.102;20.010;2023-02-22T02:34:02;98216.56;;;5.48;85.73
16806;BME280;8520;50.102;20.010;2023-02-22T02:36:35;98226.72;;;5.48;85.83
16806;BME280;8520;50.102;20.010;2023-02-22T02:39:12;98224.50;;;4.95;87.34
16806;BME280;8520;50.102;20.010;2023-02-22T02:41:47;98226.22;;;5.27;86.87
16806;BME280;8520;50.102;20.010;2023-02-22T02:44:20;98228.66;;;5.12;87.19
16806;BME280;8520;50.102;20.010;2023-02-22T02:46:54;98230.72;;;5.21;87.14
16806;BME280;8520;50.102;20.010;2023-02-22T02:49:29;98226.78;;;4.97;87.84
16806;BME280;8520;50.102;20.010;2023-02-22T02:51:59;98224.38;;;4.99;88.53
16806;BME280;8520;50.102;20.010;2023-02-22T02:54:29;98225.25;;;5.08;88.03
16806;BME280;8520;50.102;20.010;2023-02-22T02:56:58;98221.53;;;5.15;86.92
16806;BME280;8520;50.102;20.010;2023-02-22T02:59:29;98239.03;;;5.05;87.33
16806;BME280;8520;50.102;20.010;2023-02-22T03:02:08;98222.41;;;4.99;87.62
16806;BME280;8520;50.102;20.010;2023-02-22T03:04:50;98228.66;;;5.12;87.09
16806;BME280;8520;50.102;20.010;2023-02-22T03:07:32;98228.84;;;5.05;87.88
16806;BME280;8520;50.102;20.010;2023-02-22T03:10:19;98235.63;;;5.01;87.49
16806;BME280;8520;50.102;20.010;2023-02-22T03:13:02;98237.25;;;5.11;87.37
16806;BME280;8520;50.102;20.010;2023-02-22T03:15:38;98240.34;;;5.13;86.99
16806;BME280;8520;50.102;20.010;2023-02-22T03:18:15;98234.75;;;5.17;87.02
16806;BME280;8520;50.102;20.010;2023-02-22T03:20:57;98246.13;;;5.15;87.05
16806;BME280;8520;50.102;20.010;2023-02-22T03:23:30;98235.06;;;5.19;87.41
16806;BME280;8520;50.102;20.010;2023-02-22T03:26:03;98239.22;;;5.23;86.87
16806;BME280;8520;50.102;20.010;2023-02-22T03:28:35;98241.19;;;5.10;87.12
16806;BME280;8520;50.102;20.010;2023-02-22T03:31:12;98247.63;;;5.29;86.62
16806;BME280;8520;50.102;20.010;2023-02-22T03:33:46;98237.13;;;5.02;87.28
16806;BME280;8520;50.102;20.010;2023-02-22T03:36:21;98245.47;;;5.24;86.51
16806;BME280;8520;50.102;20.010;2023-02-22T03:38:53;98242.50;;;5.18;86.68
16806;BME280;8520;50.102;20.010;2023-02-22T03:41:23;98240.53;;;5.19;87.00
16806;BME280;8520;50.102;20.010;2023-02-22T03:43:56;98246.53;;;5.26;86.49
16806;BME280;8520;50.102;20.010;2023-02-22T03:46:27;98240.28;;;5.38;85.87
16806;BME280;8520;50.102;20.010;2023-02-22T03:48:58;98248.75;;;5.31;86.32
16806;BME280;8520;50.102;20.010;2023-02-22T03:51:35;98255.16;;;5.37;86.92
16806;BME280;8520;50.102;20.010;2023-02-22T03:54:06;98246.66;;;5.35;86.12
16806;BME280;8520;50.102;20.010;2023-02-22T03:56:42;98248.41;;;5.17;86.36
16806;BME280;8520;50.102;20.010;2023-02-22T03:59:13;98252.44;;;5.37;86.09
16806;BME280;8520;50.102;20.010;2023-02-22T04:01:42;98248.06;;;5.40;86.29
16806;BME280;8520;50.102;20.010;2023-02-22T04:04:11;98264.38;;;5.31;85.70
16806;BME280;8520;50.102;20.010;2023-02-22T04:06:40;98260.00;;;5.33;85.30
16806;BME280;8520;50.102;20.010;2023-02-22T04:09:09;98264.47;;;5.27;85.90
16806;BME280;8520;50.102;20.010;2023-02-22T04:11:38;98253.44;;;5.31;86.53
16806;BME280;8520;50.102;20.010;2023-02-22T04:14:07;98258.56;;;5.29;86.44
16806;BME280;8520;50.102;20.010;2023-02-22T04:16:35;98260.75;;;5.34;86.21
16806;BME280;8520;50.102;20.010;2023-02-22T04:19:07;98256.38;;;5.36;86.39
16806;BME280;8520;50.102;20.010;2023-02-22T04:21:37;98259.88;;;5.50;85.42
16806;BME280;8520;50.102;20.010;2023-02-22T04:24:12;98263.16;;;5.06;86.56
16806;BME280;8520;50.102;20.010;2023-02-22T04:26:41;98260.97;;;5.14;86.42
16806;BME280;8520;50.102;20.010;2023-02-22T04:29:10;98265.78;;;5.23;86.27
16806;BME280;8520;50.102;20.010;2023-02-22T04:31:40;98262.41;;;5.31;85.99
16806;BME280;8520;50.102;20.010;2023-02-22T04:34:08;98256.94;;;5.31;85.77
16806;BME280;8520;50.102;20.010;2023-02-22T04:36:39;98256.91;;;5.19;85.95
16806;BME280;8520;50.102;20.010;2023-02-22T04:39:08;98261.63;;;5.05;86.27
16806;BME280;8520;50.102;20.010;2023-02-22T04:41:37;98262.50;;;5.15;86.01
16806;BME280;8520;50.102;20.010;2023-02-22T04:44:06;98250.03;;;5.27;85.54
16806;BME280;8520;50.102;20.010;2023-02-22T04:46:34;98265.66;;;5.26;85.89
16806;BME280;8520;50.102;20.010;2023-02-22T04:49:02;98268.28;;;5.17;85.46
16806;BME280;8520;50.102;20.010;2023-02-22T04:51:34;98261.53;;;5.22;85.74
16806;BME280;8520;50.102;20.010;2023-02-22T04:54:07;98267.53;;;5.42;85.23
16806;BME280;8520;50.102;20.010;2023-02-22T04:56:41;98267.09;;;5.18;84.83
16806;BME280;8520;50.102;20.010;2023-02-22T04:59:09;98272.00;;;5.36;85.01
16806;BME280;8520;50.102;20.010;2023-02-22T05:01:40;98269.72;;;5.34;85.79
16806;BME280;8520;50.102;20.010;2023-02-22T05:04:08;98271.91;;;5.27;85.17
16806;BME280;8520;50.102;20.010;2023-02-22T05:06:36;98269.94;;;5.27;85.25
16806;BME280;8520;50.102;20.010;2023-02-22T05:09:05;98265.66;;;5.26;85.33
16806;BME280;8520;50.102;20.010;2023-02-22T05:11:33;98261.28;;;5.41;85.29
16806;BME280;8520;50.102;20.010;2023-02-22T05:14:02;98257.34;;;5.30;85.66
16806;BME280;8520;50.102;20.010;2023-02-22T05:16:30;98256.38;;;5.24;85.82
16806;BME280;8520;50.102;20.010;2023-02-22T05:19:00;98259.09;;;5.11;86.25
16806;BME280;8520;50.102;20.010;2023-02-22T05:21:28;98266.44;;;5.27;85.74
16806;BME280;8520;50.102;20.010;2023-02-22T05:23:56;98260.28;;;5.61;84.68
16806;BME280;8520;50.102;20.010;2023-02-22T05:26:24;98270.41;;;5.73;83.29
16806;BME280;8520;50.102;20.010;2023-02-22T05:28:52;98271.56;;;5.50;84.19
16806;BME280;8520;50.102;20.010;2023-02-22T05:31:22;98266.13;;;5.97;83.33
16806;BME280;8520;50.102;20.010;2023-02-22T05:33:50;98272.63;;;5.65;83.65
16806;BME280;8520;50.102;20.010;2023-02-22T05:36:18;98277.47;;;5.49;84.65
16806;BME280;8520;50.102;20.010;2023-02-22T05:38:46;98276.75;;;5.83;84.19
16806;BME280;8520;50.102;20.010;2023-02-22T05:41:15;98278.44;;;6.15;82.71
16806;BME280;8520;50.102;20.010;2023-02-22T05:43:43;98283.56;;;5.53;84.47
16806;BME280;8520;50.102;20.010;2023-02-22T05:46:11;98288.06;;;5.47;85.06
16806;BME280;8520;50.102;20.010;2023-02-22T05:48:42;98286.16;;;5.82;84.08
16806;BME280;8520;50.102;20.010;2023-02-22T05:51:10;98286.81;;;5.98;82.97
16806;BME280;8520;50.102;20.010;2023-02-22T05:53:38;98296.47;;;5.27;84.81
16806;BME280;8520;50.102;20.010;2023-02-22T05:56:06;98296.16;;;5.25;85.62
16806;BME280;8520;50.102;20.010;2023-02-22T05:58:34;98304.25;;;5.41;84.76
16806;BME280;8520;50.102;20.010;2023-02-22T06:01:02;98306.31;;;5.62;84.79
16806;BME280;8520;50.102;20.010;2023-02-22T06:03:30;98302.78;;;6.00;84.29
16806;BME280;8520;50.102;20.010;2023-02-22T06:06:00;98305.50;;;6.35;81.71
16806;BME280;8520;50.102;20.010;2023-02-22T06:08:28;98313.16;;;6.05;83.17
16806;BME280;8520;50.102;20.010;2023-02-22T06:10:56;98310.53;;;6.36;82.20
16806;BME280;8520;50.102;20.010;2023-02-22T06:13:24;98314.00;;;6.49;81.33
16806;BME280;8520;50.102;20.010;2023-02-22T06:15:52;98319.94;;;5.88;82.75
16806;BME280;8520;50.102;20.010;2023-02-22T06:18:20;98332.19;;;5.07;86.00
16806;BME280;8520;50.102;20.010;2023-02-22T06:20:48;98329.69;;;5.63;85.46
16806;BME280;8520;50.102;20.010;2023-02-22T06:23:18;98326.19;;;5.63;84.33
16806;BME280;8520;50.102;20.010;2023-02-22T06:25:46;98325.53;;;5.71;84.43
16806;BME280;8520;50.102;20.010;2023-02-22T06:28:14;98329.81;;;5.34;85.82
16806;BME280;8520;50.102;20.010;2023-02-22T06:30:42;98327.72;;;5.38;85.97
16806;BME280;8520;50.102;20.010;2023-02-22T06:33:11;98339.09;;;5.37;86.56
16806;BME280;8520;50.102;20.010;2023-02-22T06:35:39;98330.34;;;5.55;86.28
16806;BME280;8520;50.102;20.010;2023-02-22T06:38:07;98335.28;;;5.85;84.78
16806;BME280;8520;50.102;20.010;2023-02-22T06:40:36;98336.34;;;5.75;85.69
16806;BME280;8520;50.102;20.010;2023-02-22T06:43:04;98335.41;;;5.69;85.49
16806;BME280;8520;50.102;20.010;2023-02-22T06:45:33;98342.94;;;5.65;85.38
16806;BME280;8520;50.102;20.010;2023-02-22T06:48:01;98351.91;;;5.40;86.13
16806;BME280;8520;50.102;20.010;2023-02-22T06:50:29;98344.59;;;5.50;86.71
16806;BME280;8520;50.102;20.010;2023-02-22T06:53:01;98345.31;;;5.88;86.28
16806;BME280;8520;50.102;20.010;2023-02-22T06:55:31;98356.03;;;6.08;84.76
16806;BME280;8520;50.102;20.010;2023-02-22T06:58:02;98342.22;;;6.59;82.93
16806;BME280;8520;50.102;20.010;2023-02-22T07:00:31;98348.59;;;6.78;81.56
16806;BME280;8520;50.102;20.010;2023-02-22T07:03:00;98352.34;;;6.71;81.63
16806;BME280;8520;50.102;20.010;2023-02-22T07:05:30;98354.97;;;6.40;82.68
16806;BME280;8520;50.102;20.010;2023-02-22T07:08:03;98359.19;;;6.76;81.72
16806;BME280;8520;50.102;20.010;2023-02-22T07:10:33;98354.94;;;6.97;80.88
16806;BME280;8520;50.102;20.010;2023-02-22T07:13:04;98351.53;;;6.49;81.92
16806;BME280;8520;50.102;20.010;2023-02-22T07:15:34;98348.75;;;6.83;81.13
16806;BME280;8520;50.102;20.010;2023-02-22T07:18:03;98348.91;;;6.80;80.80
16806;BME280;8520;50.102;20.010;2023-02-22T07:20:31;98355.75;;;6.41;81.52
16806;BME280;8520;50.102;20.010;2023-02-22T07:23:00;98350.59;;;6.43;81.84
16806;BME280;8520;50.102;20.010;2023-02-22T07:25:28;98357.16;;;6.67;81.74
16806;BME280;8520;50.102;20.010;2023-02-22T07:27:56;98354.34;;;6.58;81.83
16806;BME280;8520;50.102;20.010;2023-02-22T07:30:27;98360.41;;;6.53;81.54
16806;BME280;8520;50.102;20.010;2023-02-22T07:32:58;98363.56;;;6.86;80.84
16806;BME280;8520;50.102;20.010;2023-02-22T07:35:28;98361.25;;;6.63;81.79
16806;BME280;8520;50.102;20.010;2023-02-22T07:37:57;98360.38;;;6.88;80.89
16806;BME280;8520;50.102;20.010;2023-02-22T07:40:26;98360.53;;;7.15;79.46
16806;BME280;8520;50.102;20.010;2023-02-22T07:42:56;98349.56;;;7.46;77.38
16806;BME280;8520;50.102;20.010;2023-02-22T07:45:28;98354.03;;;8.02;74.98
16806;BME280;8520;50.102;20.010;2023-02-22T07:47:57;98358.03;;;8.19;74.28
16806;BME280;8520;50.102;20.010;2023-02-22T07:50:28;98351.53;;;8.81;72.43
16806;BME280;8520;50.102;20.010;2023-02-22T07:52:58;98357.50;;;8.70;72.57
16806;BME280;8520;50.102;20.010;2023-02-22T07:55:28;98366.81;;;7.56;76.91
16806;BME280;8520;50.102;20.010;2023-02-22T07:57:59;98363.13;;;7.50;76.52
16806;BME280;8520;50.102;20.010;2023-02-22T08:00:30;98365.22;;;7.77;76.67
16806;BME280;8520;50.102;20.010;2023-02-22T08:03:00;98364.84;;;7.25;77.43
16806;BME280;8520;50.102;20.010;2023-02-22T08:05:30;98346.88;;;7.55;76.41
16806;BME280;8520;50.102;20.010;2023-02-22T08:07:58;98363.78;;;8.03;75.40
16806;BME280;8520;50.102;20.010;2023-02-22T08:10:27;98372.94;;;7.60;75.53
16806;BME280;8520;50.102;20.010;2023-02-22T08:12:57;98365.00;;;7.53;74.88
16806;BME280;8520;50.102;20.010;2023-02-22T08:15:27;98366.94;;;7.21;75.61
16806;BME280;8520;50.102;20.010;2023-02-22T08:17:57;98363.56;;;6.86;76.56
16806;BME280;8520;50.102;20.010;2023-02-22T08:20:28;98359.19;;;7.51;74.69
16806;BME280;8520;50.102;20.010;2023-02-22T08:22:57;98367.09;;;7.80;74.17
16806;BME280;8520;50.102;20.010;2023-02-22T08:25:26;98370.97;;;7.29;74.50
16806;BME280;8520;50.102;20.010;2023-02-22T08:27:56;98366.56;;;7.32;75.03
16806;BME280;8520;50.102;20.010;2023-02-22T08:30:28;98364.72;;;7.60;73.04
16806;BME280;8520;50.102;20.010;2023-02-22T08:32:58;98364.34;;;7.18;72.52
16806;BME280;8520;50.102;20.010;2023-02-22T08:35:29;98369.59;;;7.65;70.61
16806;BME280;8520;50.102;20.010;2023-02-22T08:38:00;98372.88;;;7.82;71.14
16806;BME280;8520;50.102;20.010;2023-02-22T08:40:29;98375.28;;;7.70;69.83
16806;BME280;8520;50.102;20.010;2023-02-22T08:42:58;98370.34;;;7.96;69.32
16806;BME280;8520;50.102;20.010;2023-02-22T08:45:27;98367.44;;;8.00;68.87
16806;BME280;8520;50.102;20.010;2023-02-22T08:47:58;98371.72;;;8.01;67.24
16806;BME280;8520;50.102;20.010;2023-02-22T08:50:27;98379.97;;;8.10;67.55
16806;BME280;8520;50.102;20.010;2023-02-22T08:52:58;98373.09;;;7.96;66.53
16806;BME280;8520;50.102;20.010;2023-02-22T08:55:29;98380.28;;;8.12;65.13
16806;BME280;8520;50.102;20.010;2023-02-22T08:57:58;98372.34;;;8.05;64.78
16806;BME280;8520;50.102;20.010;2023-02-22T09:00:27;98375.88;;;7.75;66.31
16806;BME280;8520;50.102;20.010;2023-02-22T09:03:00;98389.16;;;7.14;66.98
16806;BME280;8520;50.102;20.010;2023-02-22T09:05:29;98380.84;;;7.58;66.35
16806;BME280;8520;50.102;20.010;2023-02-22T09:07:57;98378.59;;;7.65;65.45
16806;BME280;8520;50.102;20.010;2023-02-22T09:10:28;98381.72;;;7.86;65.52
16806;BME280;8520;50.102;20.010;2023-02-22T09:12:57;98380.16;;;8.25;64.36
16806;BME280;8520;50.102;20.010;2023-02-22T09:15:27;98388.13;;;7.83;65.85
16806;BME280;8520;50.102;20.010;2023-02-22T09:17:56;98386.16;;;7.92;66.29
16806;BME280;8520;50.102;20.010;2023-02-22T09:20:26;98389.59;;;7.75;65.45
16806;BME280;8520;50.102;20.010;2023-02-22T09:22:55;98380.81;;;8.38;64.84
16806;BME280;8520;50.102;20.010;2023-02-22T09:25:23;98391.34;;;8.49;63.30
16806;BME280;8520;50.102;20.010;2023-02-22T09:27:53;98388.16;;;8.60;62.45
16806;BME280;8520;50.102;20.010;2023-02-22T09:30:24;98381.13;;;8.95;61.80
16806;BME280;8520;50.102;20.010;2023-02-22T09:32:55;98390.13;;;8.77;62.98
16806;BME280;8520;50.102;20.010;2023-02-22T09:35:26;98381.41;;;7.84;66.35
16806;BME280;8520;50.102;20.010;2023-02-22T09:37:55;98376.97;;;8.26;65.64
16806;BME280;8520;50.102;20.010;2023-02-22T09:40:24;98393.66;;;8.78;64.54
16806;BME280;8520;50.102;20.010;2023-02-22T09:43:04;98383.13;;;8.76;63.74
16806;BME280;8520;50.102;20.010;2023-02-22T09:45:40;98373.22;;;8.79;62.67
16806;BME280;8520;50.102;20.010;2023-02-22T09:48:15;98384.81;;;8.74;63.50
16806;BME280;8520;50.102;20.010;2023-02-22T09:50:52;98370.53;;;9.21;62.18
16806;BME280;8520;50.102;20.010;2023-02-22T09:53:27;98383.28;;;8.82;63.51
16806;BME280;8520;50.102;20.010;2023-02-22T09:56:00;98385.59;;;7.97;61.63
16806;BME280;8520;50.102;20.010;2023-02-22T09:58:34;98392.75;;;8.04;62.53
16806;BME280;8520;50.102;20.010;2023-02-22T10:01:16;98378.56;;;7.96;62.60
16806;BME280;8520;50.102;20.010;2023-02-22T10:03:51;98384.91;;;7.44;63.10
16806;BME280;8520;50.102;20.010;2023-02-22T10:06:24;98382.53;;;7.95;61.42
16806;BME280;8520;50.102;20.010;2023-02-22T10:08:54;98378.38;;;7.82;62.59
16806;BME280;8520;50.102;20.010;2023-02-22T10:11:48;98379.97;;;7.61;62.46
16806;BME280;8520;50.102;20.010;2023-02-22T10:14:33;98384.19;;;7.53;61.65
16806;BME280;8520;50.102;20.010;2023-02-22T10:17:09;98380.44;;;7.06;63.00
16806;BME280;8520;50.102;20.010;2023-02-22T10:19:47;98370.47;;;7.93;61.86
16806;BME280;8520;50.102;20.010;2023-02-22T10:22:36;98377.06;;;7.64;62.91
16806;BME280;8520;50.102;20.010;2023-02-22T10:25:10;98367.47;;;8.18;62.70
16806;BME280;8520;50.102;20.010;2023-02-22T10:27:42;98360.72;;;7.21;63.30
16806;BME280;8520;50.102;20.010;2023-02-22T10:30:18;98367.00;;;7.61;63.94
16806;BME280;8520;50.102;20.010;2023-02-22T10:32:54;98367.94;;;7.05;65.70
16806;BME280;8520;50.102;20.010;2023-02-22T10:35:28;98362.41;;;7.58;64.84
16806;BME280;8520;50.102;20.010;2023-02-22T10:38:05;98367.91;;;7.58;64.34
16806;BME280;8520;50.102;20.010;2023-02-22T10:40:42;98363.19;;;7.99;63.19
16806;BME280;8520;50.102;20.010;2023-02-22T10:43:13;98367.09;;;8.47;62.70
16806;BME280;8520;50.102;20.010;2023-02-22T10:45:41;98366.44;;;8.25;63.31
16806;BME280;8520;50.102;20.010;2023-02-22T10:48:12;98360.69;;;8.41;59.19
16806;BME280;8520;50.102;20.010;2023-02-22T10:50:42;98360.53;;;8.72;60.09
16806;BME280;8520;50.102;20.010;2023-02-22T10:53:13;98365.25;;;8.35;61.53
16806;BME280;8520;50.102;20.010;2023-02-22T10:56:08;98367.16;;;7.67;61.89
16806;BME280;8520;50.102;20.010;2023-02-22T10:58:43;98355.72;;;7.28;63.09
16806;BME280;8520;50.102;20.010;2023-02-22T11:01:18;98352.72;;;7.76;61.94
16806;BME280;8520;50.102;20.010;2023-02-22T11:03:56;98358.03;;;8.19;61.20
16806;BME280;8520;50.102;20.010;2023-02-22T11:06:25;98358.78;;;8.11;61.08
16806;BME280;8520;50.102;20.010;2023-02-22T11:09:04;98359.56;;;8.30;59.54
16806;BME280;8520;50.102;20.010;2023-02-22T11:11:37;98355.19;;;8.41;60.77
16806;BME280;8520;50.102;20.010;2023-02-22T11:14:06;98347.97;;;8.16;60.41
16806;BME280;8520;50.102;20.010;2023-02-22T11:16:38;98359.25;;;8.18;60.83
16806;BME280;8520;50.102;20.010;2023-02-22T11:19:15;98347.50;;;7.59;61.38
16806;BME280;8520;50.102;20.010;2023-02-22T11:21:47;98351.91;;;8.06;58.75
16806;BME280;8520;50.102;20.010;2023-02-22T11:24:19;98349.16;;;7.97;59.88
16806;BME280;8520;50.102;20.010;2023-02-22T11:26:53;98352.25;;;8.17;59.12
16806;BME280;8520;50.102;20.010;2023-02-22T11:29:25;98351.59;;;8.04;58.10
16806;BME280;8520;50.102;20.010;2023-02-22T11:31:54;98349.03;;;8.28;57.88
16806;BME280;8520;50.102;20.010;2023-02-22T11:34:28;98353.13;;;8.05;58.45
16806;BME280;8520;50.102;20.010;2023-02-22T11:37:14;98356.59;;;7.87;58.66
16806;BME280;8520;50.102;20.010;2023-02-22T11:39:44;98354.31;;;8.04;59.13
16806;BME280;8520;50.102;20.010;2023-02-22T11:42:19;98350.47;;;8.60;58.93
16806;BME280;8520;50.102;20.010;2023-02-22T11:45:07;98359.09;;;8.31;57.83
16806;BME280;8520;50.102;20.010;2023-02-22T11:47:46;98357.13;;;8.32;57.15
16806;BME280;8520;50.102;20.010;2023-02-22T11:50:19;98359.78;;;8.63;56.61
16806;BME280;8520;50.102;20.010;2023-02-22T11:52:53;98355.34;;;8.56;57.68
16806;BME280;8520;50.102;20.010;2023-02-22T11:55:33;98361.19;;;7.99;58.27
16806;BME280;8520;50.102;20.010;2023-02-22T11:58:23;98349.63;;;7.55;59.05
16806;BME280;8520;50.102;20.010;2023-02-22T12:00:57;98356.28;;;8.53;57.63
16806;BME280;8520;50.102;20.010;2023-02-22T12:07:16;98352.13;;;7.72;58.44
16806;BME280;8520;50.102;20.010;2023-02-22T12:09:53;98346.03;;;8.35;57.40
16806;BME280;8520;50.102;20.010;2023-02-22T12:12:37;98346.28;;;8.10;57.20
16806;BME280;8520;50.102;20.010;2023-02-22T12:15:13;98344.88;;;9.33;55.08
16806;BME280;8520;50.102;20.010;2023-02-22T12:17:50;98339.63;;;9.45;54.55
16806;BME280;8520;50.102;20.010;2023-02-22T12:20:29;98344.06;;;8.81;56.29
16806;BME280;8520;50.102;20.010;2023-02-22T12:23:04;98342.28;;;9.30;56.03
16806;BME280;8520;50.102;20.010;2023-02-22T12:25:38;98328.84;;;10.46;52.67
16806;BME280;8520;50.102;20.010;2023-02-22T12:28:17;98326.50;;;10.68;52.60
16806;BME280;8520;50.102;20.010;2023-02-22T12:30:55;98333.47;;;10.16;52.52
16806;BME280;8520;50.102;20.010;2023-02-22T12:33:28;98336.22;;;9.17;55.01
16806;BME280;8520;50.102;20.010;2023-02-22T12:36:01;98328.75;;;9.83;54.61
16806;BME280;8520;50.102;20.010;2023-02-22T12:38:35;98326.41;;;10.63;52.27
16806;BME280;8520;50.102;20.010;2023-02-22T12:41:10;98329.88;;;9.44;53.63
16806;BME280;8520;50.102;20.010;2023-02-22T12:43:46;98331.03;;;9.00;54.06
16806;BME280;8520;50.102;20.010;2023-02-22T12:46:20;98334.81;;;9.21;54.45
16806;BME280;8520;50.102;20.010;2023-02-22T12:48:55;98320.91;;;10.15;53.28
16806;BME280;8520;50.102;20.010;2023-02-22T12:51:30;98316.97;;;10.16;52.69
16806;BME280;8520;50.102;20.010;2023-02-22T12:54:05;98322.44;;;10.25;52.92
16806;BME280;8520;50.102;20.010;2023-02-22T12:56:37;98323.06;;;10.59;52.97
16806;BME280;8520;50.102;20.010;2023-02-22T12:59:15;98331.34;;;9.54;54.33
16806;BME280;8520;50.102;20.010;2023-02-22T13:01:49;98324.19;;;10.04;54.73
16806;BME280;8520;50.102;20.010;2023-02-22T13:04:19;98330.25;;;9.60;54.34
16806;BME280;8520;50.102;20.010;2023-02-22T13:07:04;98329.84;;;8.92;54.57
16806;BME280;8520;50.102;20.010;2023-02-22T13:12:50;98325.63;;;9.66;54.17
16806;BME280;8520;50.102;20.010;2023-02-22T13:15:27;98314.16;;;10.78;51.66
16806;BME280;8520;50.102;20.010;2023-02-22T13:18:03;98316.34;;;10.12;52.26
16806;BME280;8520;50.102;20.010;2023-02-22T13:20:37;98326.78;;;8.99;55.02
16806;BME280;8520;50.102;20.010;2023-02-22T13:23:12;98327.19;;;9.58;54.30
16806;BME280;8520;50.102;20.010;2023-02-22T13:25:46;98329.44;;;9.36;54.60
16806;BME280;8520;50.102;20.010;2023-02-22T13:28:21;98331.69;;;9.80;53.60
16806;BME280;8520;50.102;20.010;2023-02-22T13:31:12;98329.47;;;9.93;53.51
16806;BME280;8520;50.102;20.010;2023-02-22T13:33:56;98330.56;;;9.86;53.02
16806;BME280;8520;50.102;20.010;2023-02-22T13:36:35;98336.78;;;9.21;54.22
16806;BME280;8520;50.102;20.010;2023-02-22T13:42:33;98324.66;;;10.03;53.49
16806;BME280;8520;50.102;20.010;2023-02-22T13:45:27;98328.38;;;9.66;53.40
16806;BME280;8520;50.102;20.010;2023-02-22T13:48:34;98321.53;;;9.62;53.82
16806;BME280;8520;50.102;20.010;2023-02-22T13:51:12;98337.06;;;9.74;54.22
16806;BME280;8520;50.102;20.010;2023-02-22T13:53:49;98336.38;;;9.55;54.03